createdAt,value
2019-06-07T00:01:50.261Z,18.00
2019-06-07T00:04:21.434Z,18.00
2019-06-07T00:06:50.703Z,18.00
2019-06-07T00:09:22.528Z,18.00
2019-06-07T00:11:51.106Z,18.00
2019-06-07T00:14:21.140Z,18.00
2019-06-07T00:16:50.990Z,18.00
2019-06-07T00:19:20.390Z,17.90
2019-06-07T00:24:21.884Z,17.90
2019-06-07T00:26:58.295Z,17.90
2019-06-07T00:29:22.772Z,17.90
2019-06-07T00:31:52.143Z,17.90
2019-06-07T00:34:22.997Z,17.90
2019-06-07T00:36:52.568Z,17.90
2019-06-07T00:39:25.217Z,17.90
2019-06-07T00:41:53.088Z,17.90
2019-06-07T00:44:23.311Z,17.90
2019-06-07T00:46:52.999Z,17.90
2019-06-07T00:49:39.899Z,17.90
2019-06-07T00:51:53.794Z,17.80
2019-06-07T00:54:24.736Z,17.80
2019-06-07T00:56:54.852Z,17.80
2019-06-07T00:59:29.304Z,17.70
2019-06-07T01:01:55.305Z,17.70
2019-06-07T01:04:26.472Z,17.70
2019-06-07T01:06:55.739Z,17.70
2019-06-07T01:09:25.642Z,17.60
2019-06-07T01:11:55.266Z,17.60
2019-06-07T01:14:28.093Z,17.60
2019-06-07T01:17:07.084Z,17.50
2019-06-07T01:19:28.002Z,17.50
2019-06-07T01:21:57.841Z,17.50
2019-06-07T01:24:27.992Z,17.40
2019-06-07T01:26:57.761Z,17.40
2019-06-07T01:29:30.365Z,17.30
2019-06-07T01:31:58.226Z,17.30
2019-06-07T01:34:28.922Z,17.20
2019-06-07T01:36:58.486Z,17.20
2019-06-07T01:39:29.763Z,17.20
2019-06-07T01:41:58.954Z,17.10
2019-06-07T01:44:30.715Z,17.10
2019-06-07T01:46:59.445Z,17.10
2019-06-07T01:49:29.796Z,17.00
2019-06-07T01:51:59.673Z,17.00
2019-06-07T01:57:00.212Z,17.00
2019-06-07T01:59:31.636Z,17.00
2019-06-07T02:02:00.869Z,17.00
2019-06-07T02:04:33.179Z,16.90
2019-06-07T02:07:01.352Z,16.90
2019-06-07T02:09:31.922Z,16.90
2019-06-07T02:12:02.803Z,16.90
2019-06-07T02:14:33.395Z,16.90
2019-06-07T02:17:03.408Z,16.80
2019-06-07T02:19:33.538Z,16.80
2019-06-07T02:22:07.063Z,16.80
2019-06-07T02:24:36.733Z,16.80
2019-06-07T02:27:06.365Z,16.80
2019-06-07T02:29:35.863Z,16.70
2019-06-07T02:32:05.227Z,16.80
2019-06-07T02:34:38.837Z,16.70
2019-06-07T02:37:05.618Z,16.70
2019-06-07T02:39:39.984Z,16.70
2019-06-07T02:42:06.611Z,16.70
2019-06-07T02:44:39.719Z,16.60
2019-06-07T02:47:07.029Z,16.60
2019-06-07T02:49:40.989Z,16.60
2019-06-07T02:52:07.441Z,16.60
2019-06-07T02:54:40.071Z,16.50
2019-06-07T02:57:07.919Z,16.50
2019-06-07T03:00:03.133Z,16.50
2019-06-07T03:02:08.474Z,16.50
2019-06-07T03:04:44.103Z,16.50
2019-06-07T03:07:12.120Z,16.40
2019-06-07T03:09:42.211Z,16.40
2019-06-07T03:12:14.207Z,16.50
2019-06-07T03:14:44.730Z,16.40
2019-06-07T03:17:27.050Z,16.40
2019-06-07T03:19:58.195Z,16.40
2019-06-07T03:22:29.225Z,16.30
2019-06-07T03:25:01.905Z,16.30
2019-06-07T03:27:36.217Z,16.30
2019-06-07T03:30:34.955Z,16.20
2019-06-07T03:32:38.576Z,16.20
2019-06-07T03:35:04.831Z,16.20
2019-06-07T03:37:37.674Z,16.10
2019-06-07T03:40:05.699Z,16.10
2019-06-07T03:42:38.774Z,16.10
2019-06-07T03:45:06.770Z,16.10
2019-06-07T03:47:39.349Z,16.10
2019-06-07T03:50:07.334Z,16.10
2019-06-07T03:52:40.607Z,16.10
2019-06-07T03:55:07.820Z,16.00
2019-06-07T03:58:29.502Z,16.00
2019-06-07T04:00:08.376Z,16.00
2019-06-07T04:02:40.875Z,16.00
2019-06-07T04:05:08.856Z,16.10
2019-06-07T04:07:43.785Z,16.00
2019-06-07T04:10:09.715Z,16.10
2019-06-07T04:12:43.484Z,16.10
2019-06-07T04:15:10.170Z,16.10
2019-06-07T04:17:55.986Z,16.10
2019-06-07T04:20:10.838Z,16.10
2019-06-07T04:22:42.693Z,16.10
2019-06-07T04:25:14.361Z,16.20
2019-06-07T04:27:43.672Z,16.20
2019-06-07T04:30:14.895Z,16.20
2019-06-07T04:32:45.153Z,16.20
2019-06-07T04:35:14.829Z,16.30
2019-06-07T04:37:44.213Z,16.30
2019-06-07T04:40:13.536Z,16.30
2019-06-07T04:42:45.737Z,16.30
2019-06-07T04:45:33.217Z,16.30
2019-06-07T04:47:49.200Z,16.40
2019-06-07T04:50:18.594Z,16.40
2019-06-07T04:52:48.024Z,16.50
2019-06-07T04:55:17.421Z,16.50
2019-06-07T04:57:46.856Z,16.50
2019-06-07T05:00:48.779Z,16.60
2019-06-07T05:02:51.587Z,16.60
2019-06-07T05:05:21.035Z,16.70
2019-06-07T05:07:50.357Z,16.70
2019-06-07T05:10:19.772Z,16.80
2019-06-07T05:12:49.141Z,16.80
2019-06-07T05:15:18.584Z,16.80
2019-06-07T05:17:48.003Z,16.90
2019-06-07T05:20:17.683Z,16.90
2019-06-07T05:22:48.998Z,17.00
2019-06-07T05:25:18.443Z,17.10
2019-06-07T05:27:47.889Z,17.10
2019-06-07T05:33:04.173Z,17.20
2019-06-07T05:35:35.453Z,17.30
2019-06-07T05:38:05.736Z,17.40
2019-06-07T05:40:39.451Z,17.50
2019-06-07T05:43:10.678Z,17.60
2019-06-07T05:45:44.988Z,17.70
2019-06-07T05:48:11.139Z,17.70
2019-06-07T05:50:50.068Z,17.70
2019-06-07T05:53:11.774Z,17.80
2019-06-07T05:55:44.193Z,17.80
2019-06-07T05:58:12.418Z,17.80
2019-06-07T06:00:44.575Z,17.80
2019-06-07T06:03:12.862Z,17.90
2019-06-07T06:05:49.307Z,17.90
2019-06-07T06:08:13.461Z,18.00
2019-06-07T06:10:46.830Z,18.00
2019-06-07T06:13:14.761Z,18.10
2019-06-07T06:15:56.298Z,18.10
2019-06-07T06:18:15.132Z,18.20
2019-06-07T06:23:15.685Z,18.40
2019-06-07T06:25:52.443Z,18.40
2019-06-07T06:28:16.414Z,18.50
2019-06-07T06:30:49.343Z,18.60
2019-06-07T06:33:33.198Z,18.70
2019-06-07T06:35:50.559Z,18.70
2019-06-07T06:38:19.860Z,18.80
2019-06-07T06:41:05.020Z,18.90
2019-06-07T06:43:20.330Z,19.00
2019-06-07T06:45:50.765Z,19.10
2019-06-07T06:48:20.513Z,19.10
2019-06-07T06:50:52.442Z,19.20
2019-06-07T06:53:20.955Z,19.30
2019-06-07T06:55:51.443Z,19.40
2019-06-07T06:58:21.066Z,19.50
2019-06-07T07:01:04.974Z,19.60
2019-06-07T07:03:57.529Z,19.70
2019-06-07T07:05:54.846Z,19.80
2019-06-07T07:08:24.469Z,19.90
2019-06-07T07:10:55.053Z,20.00
2019-06-07T07:13:24.751Z,20.10
2019-06-07T07:15:57.843Z,20.20
2019-06-07T07:18:25.232Z,20.40
2019-06-07T07:20:57.234Z,20.40
2019-06-07T07:23:25.832Z,20.60
2019-06-07T07:25:59.235Z,20.60
2019-06-07T07:28:26.328Z,20.60
2019-06-07T07:30:57.183Z,20.60
2019-06-07T07:34:20.061Z,20.50
2019-06-07T07:36:28.474Z,20.60
2019-06-07T07:38:28.995Z,20.60
2019-06-07T07:41:13.428Z,20.70
2019-06-07T07:43:29.480Z,20.80
2019-06-07T07:46:03.141Z,21.00
2019-06-07T07:48:30.631Z,21.10
2019-06-07T07:51:01.214Z,21.20
2019-06-07T07:53:47.536Z,21.30
2019-06-07T07:56:03.492Z,21.40
2019-06-07T07:58:33.372Z,21.50
2019-06-07T08:01:10.406Z,21.60
2019-06-07T08:03:33.969Z,21.70
2019-06-07T08:06:03.398Z,21.80
2019-06-07T08:08:32.849Z,22.00
2019-06-07T08:11:02.617Z,22.10
2019-06-07T08:13:32.125Z,22.30
2019-06-07T08:16:11.500Z,22.50
2019-06-07T08:18:34.609Z,22.60
2019-06-07T08:21:21.330Z,22.70
2019-06-07T08:23:35.123Z,22.80
2019-06-07T08:26:04.511Z,23.00
2019-06-07T08:28:33.921Z,23.20
2019-06-07T08:31:06.487Z,23.40
2019-06-07T08:33:34.882Z,23.60
2019-06-07T08:36:15.045Z,23.70
2019-06-07T08:38:47.489Z,23.60
2019-06-07T08:41:11.840Z,23.40
2019-06-07T08:43:37.389Z,23.40
2019-06-07T08:46:07.901Z,23.20
2019-06-07T08:48:37.591Z,23.10
2019-06-07T08:51:08.534Z,23.10
2019-06-07T08:53:38.007Z,23.30
2019-06-07T08:56:11.101Z,23.40
2019-06-07T08:58:38.532Z,23.70
2019-06-07T09:01:08.856Z,23.90
2019-06-07T09:03:38.985Z,24.10
2019-06-07T09:06:53.806Z,24.30
2019-06-07T09:08:39.777Z,24.50
2019-06-07T09:11:11.135Z,24.70
2019-06-07T09:13:40.239Z,24.80
2019-06-07T09:16:09.584Z,25.10
2019-06-07T09:18:43.658Z,25.30
2019-06-07T09:21:10.137Z,25.50
2019-06-07T09:23:39.705Z,25.30
2019-06-07T09:26:17.710Z,25.60
2019-06-07T09:28:40.348Z,25.70
2019-06-07T09:31:12.304Z,25.80
2019-06-07T09:33:40.823Z,25.80
2019-06-07T09:36:12.947Z,25.70
2019-06-07T09:38:41.681Z,25.60
2019-06-07T09:41:11.090Z,25.90
2019-06-07T09:44:01.873Z,26.00
2019-06-07T09:46:15.394Z,26.10
2019-06-07T09:51:20.031Z,26.40
2019-06-07T09:53:44.813Z,26.10
2019-06-07T09:56:14.238Z,26.30
2019-06-07T09:58:53.154Z,26.50
2019-06-07T10:01:14.719Z,26.80
2019-06-07T10:03:44.099Z,26.90
2019-06-07T10:06:14.048Z,27.00
2019-06-07T10:11:16.444Z,27.00
2019-06-07T10:13:45.909Z,27.20
2019-06-07T10:16:15.302Z,27.20
2019-06-07T10:18:44.640Z,27.20
2019-06-07T10:21:15.201Z,27.10
2019-06-07T10:23:45.609Z,27.10
2019-06-07T10:26:14.956Z,27.30
2019-06-07T10:28:44.397Z,27.50
2019-06-07T10:31:13.773Z,27.70
2019-06-07T10:33:43.267Z,27.90
2019-06-07T10:36:12.681Z,28.10
2019-06-07T10:38:42.123Z,28.10
2019-06-07T10:41:11.535Z,28.20
2019-06-07T10:43:40.971Z,28.40
2019-06-07T10:46:11.912Z,28.40
2019-06-07T10:48:41.432Z,28.40
2019-06-07T10:51:13.982Z,28.50
2019-06-07T10:53:41.985Z,28.60
2019-06-07T10:56:11.311Z,28.60
2019-06-07T10:58:40.797Z,28.40
2019-06-07T11:01:12.398Z,28.40
2019-06-07T11:03:41.190Z,28.40
2019-06-07T11:06:11.989Z,28.30
2019-06-07T11:08:41.605Z,28.30
2019-06-07T11:11:12.087Z,28.20
2019-06-07T11:13:41.827Z,28.00
2019-06-07T11:16:11.272Z,28.20
2019-06-07T11:18:40.846Z,28.40
2019-06-07T11:21:10.263Z,28.40
2019-06-07T11:23:39.646Z,28.30
2019-06-07T11:26:10.211Z,28.00
2019-06-07T11:28:39.813Z,28.20
2019-06-07T11:31:10.527Z,28.00
2019-06-07T11:33:40.585Z,27.90
2019-06-07T11:36:10.638Z,27.70
2019-06-07T11:38:40.282Z,27.60
2019-06-07T11:41:09.666Z,27.50
2019-06-07T11:43:39.065Z,27.40
2019-06-07T11:46:08.851Z,27.30
2019-06-07T11:48:38.357Z,27.20
2019-06-07T11:51:08.586Z,27.20
2019-06-07T11:53:38.115Z,27.20
2019-06-07T11:56:07.876Z,27.40
2019-06-07T11:58:37.277Z,27.50
2019-06-07T12:01:07.561Z,27.70
2019-06-07T12:03:37.096Z,27.80
2019-06-07T12:06:08.233Z,27.90
2019-06-07T12:08:37.628Z,28.00
2019-06-07T12:11:08.033Z,28.20
2019-06-07T12:13:37.628Z,28.30
2019-06-07T12:16:09.065Z,28.40
2019-06-07T12:18:38.690Z,28.60
2019-06-07T12:21:09.413Z,28.60
2019-06-07T12:23:38.970Z,28.60
2019-06-07T12:26:08.436Z,28.70
2019-06-07T12:28:37.852Z,28.60
2019-06-07T12:31:07.254Z,28.40
2019-06-07T12:33:36.652Z,28.40
2019-06-07T12:36:06.596Z,28.50
2019-06-07T12:38:35.988Z,28.70
2019-06-07T12:41:05.331Z,28.50
2019-06-07T12:43:34.823Z,28.50
2019-06-07T12:46:04.146Z,28.50
2019-06-07T12:48:33.490Z,28.40
2019-06-07T12:51:02.824Z,28.40
2019-06-07T12:53:32.256Z,28.50
2019-06-07T12:56:01.555Z,28.40
2019-06-07T12:58:36.042Z,28.40
2019-06-07T13:01:02.013Z,28.30
2019-06-07T13:03:31.367Z,28.20
2019-06-07T13:06:00.778Z,28.20
2019-06-07T13:08:30.138Z,28.10
2019-06-07T13:11:14.030Z,28.00
2019-06-07T13:13:30.610Z,27.90
2019-06-07T13:16:00.031Z,27.80
2019-06-07T13:18:29.490Z,27.70
2019-06-07T13:20:58.836Z,27.80
2019-06-07T13:23:28.920Z,27.80
2019-06-07T13:25:58.713Z,27.80
2019-06-07T13:28:28.969Z,27.80
2019-06-07T13:30:58.567Z,27.80
2019-06-07T13:33:35.419Z,28.00
2019-06-07T13:35:59.069Z,28.10
2019-06-07T13:38:29.107Z,28.40
2019-06-07T13:40:58.801Z,28.50
2019-06-07T13:43:28.378Z,28.60
2019-06-07T13:45:57.801Z,28.90
2019-06-07T13:48:27.741Z,29.00
2019-06-07T13:50:57.459Z,29.20
2019-06-07T13:53:26.845Z,29.20
2019-06-07T13:55:56.277Z,29.40
2019-06-07T13:58:26.393Z,29.40
2019-06-07T14:00:56.032Z,29.40
2019-06-07T14:03:30.488Z,29.50
2019-06-07T14:05:56.625Z,29.50
2019-06-07T14:08:27.184Z,29.50
2019-06-07T14:10:56.908Z,29.50
2019-06-07T14:13:26.311Z,29.60
2019-06-07T14:15:55.737Z,29.60
2019-06-07T14:18:26.336Z,29.60
2019-06-07T14:20:58.803Z,29.60
2019-06-07T14:23:43.757Z,29.60
2019-06-07T14:25:58.156Z,29.50
2019-06-07T14:28:30.833Z,29.50
2019-06-07T14:30:58.626Z,29.50
2019-06-07T14:33:29.994Z,29.50
2019-06-07T14:35:59.093Z,29.50
2019-06-07T14:38:31.246Z,29.50
2019-06-07T14:40:59.613Z,29.50
2019-06-07T14:43:29.641Z,29.40
2019-06-07T14:45:59.139Z,29.30
2019-06-07T14:48:28.616Z,29.30
2019-06-07T14:50:57.963Z,29.20
2019-06-07T14:53:28.609Z,29.20
2019-06-07T14:55:58.466Z,29.10
2019-06-07T14:58:29.254Z,29.10
2019-06-07T15:00:58.814Z,29.10
2019-06-07T15:03:28.399Z,29.10
2019-06-07T15:05:58.080Z,29.00
2019-06-07T15:08:28.447Z,28.90
2019-06-07T15:10:58.159Z,28.80
2019-06-07T15:13:27.628Z,28.60
2019-06-07T15:15:57.453Z,28.50
2019-06-07T15:18:27.593Z,28.40
2019-06-07T15:20:57.039Z,28.30
2019-06-07T15:23:27.055Z,28.20
2019-06-07T15:25:56.627Z,28.10
2019-06-07T15:28:27.507Z,28.00
2019-06-07T15:30:57.339Z,27.90
2019-06-07T15:33:27.864Z,27.80
2019-06-07T15:35:57.329Z,27.70
2019-06-07T15:38:26.823Z,27.60
2019-06-07T15:40:56.275Z,27.60
2019-06-07T15:43:25.686Z,27.50
2019-06-07T15:45:55.120Z,27.50
2019-06-07T15:48:24.511Z,27.40
2019-06-07T15:50:53.986Z,27.40
2019-06-07T15:53:23.366Z,27.40
2019-06-07T15:55:52.735Z,27.30
2019-06-07T15:58:22.062Z,27.20
2019-06-07T16:00:51.542Z,27.10
2019-06-07T16:03:20.926Z,27.10
2019-06-07T16:05:50.343Z,27.10
2019-06-07T16:08:19.818Z,27.00
2019-06-07T16:10:49.146Z,27.00
2019-06-07T16:13:18.675Z,26.90
2019-06-07T16:15:47.958Z,26.90
2019-06-07T16:18:17.558Z,26.90
2019-06-07T16:20:46.923Z,26.80
2019-06-07T16:23:16.430Z,26.70
2019-06-07T16:25:45.819Z,26.70
2019-06-07T16:28:15.282Z,26.60
2019-06-07T16:30:44.890Z,26.60
2019-06-07T16:33:14.409Z,26.60
2019-06-07T16:35:45.225Z,26.60
2019-06-07T16:38:14.739Z,26.60
2019-06-07T16:40:44.637Z,26.50
2019-06-07T16:43:17.978Z,26.50
2019-06-07T16:45:45.215Z,26.40
2019-06-07T16:48:14.635Z,26.40
2019-06-07T16:50:45.145Z,26.40
2019-06-07T16:53:14.826Z,26.30
2019-06-07T16:55:44.844Z,26.30
2019-06-07T16:58:14.434Z,26.20
2019-06-07T17:00:44.245Z,26.20
2019-06-07T17:03:13.791Z,26.10
2019-06-07T17:05:46.949Z,26.10
2019-06-07T17:08:14.267Z,26.00
2019-06-07T17:10:44.240Z,26.00
2019-06-07T17:13:13.730Z,25.90
2019-06-07T17:15:43.202Z,25.90
2019-06-07T17:18:12.603Z,25.80
2019-06-07T17:20:43.198Z,25.80
2019-06-07T17:23:12.630Z,25.80
2019-06-07T17:25:43.423Z,25.80
2019-06-07T17:28:12.942Z,25.70
2019-06-07T17:30:43.870Z,25.70
2019-06-07T17:33:13.381Z,25.60
2019-06-07T17:35:44.664Z,25.60
2019-06-07T17:38:14.250Z,25.50
2019-06-07T17:40:44.868Z,25.50
2019-06-07T17:43:14.416Z,25.40
2019-06-07T17:45:45.283Z,25.40
2019-06-07T17:48:15.109Z,25.30
2019-06-07T17:50:45.803Z,25.30
2019-06-07T17:53:15.308Z,25.20
2019-06-07T17:55:46.117Z,25.10
2019-06-07T17:58:15.758Z,25.10
2019-06-07T18:00:48.903Z,25.00
2019-06-07T18:03:18.869Z,25.00
2019-06-07T18:05:49.354Z,24.90
2019-06-07T18:08:18.805Z,24.80
2019-06-07T18:10:48.320Z,24.80
2019-06-07T18:13:18.083Z,24.70
2019-06-07T18:15:53.974Z,24.60
2019-06-07T18:18:20.152Z,24.60
2019-06-07T18:20:49.597Z,24.60
2019-06-07T18:23:19.011Z,24.50
2019-06-07T18:25:48.493Z,24.40
2019-06-07T18:28:18.050Z,24.40
2019-06-07T18:30:48.535Z,24.30
2019-06-07T18:33:18.170Z,24.30
2019-06-07T18:35:48.902Z,24.30
2019-06-07T18:38:18.543Z,24.10
2019-06-07T18:40:49.011Z,24.10
2019-06-07T18:43:18.656Z,24.00
2019-06-07T18:45:49.249Z,24.00
2019-06-07T18:48:18.881Z,23.90
2019-06-07T18:50:48.608Z,23.90
2019-06-07T18:53:18.194Z,23.90
2019-06-07T18:55:47.801Z,23.80
2019-06-07T18:58:17.395Z,23.80
2019-06-07T19:00:47.335Z,23.70
2019-06-07T19:03:16.966Z,23.70
2019-06-07T19:05:46.438Z,23.60
2019-06-07T19:08:15.787Z,23.50
2019-06-07T19:10:45.208Z,23.50
2019-06-07T19:13:14.606Z,23.40
2019-06-07T19:15:44.005Z,23.40
2019-06-07T19:18:13.440Z,23.30
2019-06-07T19:20:42.981Z,23.30
2019-06-07T19:23:12.390Z,23.20
2019-06-07T19:25:41.715Z,23.20
2019-06-07T19:28:11.156Z,23.10
2019-06-07T19:30:40.488Z,23.10
2019-06-07T19:33:09.814Z,23.00
2019-06-07T19:35:39.275Z,23.00
2019-06-07T19:38:08.699Z,22.90
2019-06-07T19:40:38.005Z,22.90
2019-06-07T19:43:07.372Z,22.80
2019-06-07T19:45:36.760Z,22.80
2019-06-07T19:48:06.438Z,22.70
2019-06-07T19:50:35.855Z,22.60
2019-06-07T19:53:05.213Z,22.60
2019-06-07T19:55:34.600Z,22.50
2019-06-07T19:58:04.084Z,22.50
2019-06-07T20:00:33.450Z,22.50
2019-06-07T20:03:04.304Z,22.40
2019-06-07T20:05:34.404Z,22.40
2019-06-07T20:08:04.945Z,22.30
2019-06-07T20:10:34.559Z,22.30
2019-06-07T20:13:05.194Z,22.30
2019-06-07T20:15:34.782Z,22.20
2019-06-07T20:18:05.411Z,22.20
2019-06-07T20:20:37.323Z,22.10
2019-06-07T20:23:06.778Z,22.10
2019-06-07T20:25:36.294Z,22.10
2019-06-07T20:28:06.786Z,22.00
2019-06-07T20:30:36.254Z,22.00
2019-06-07T20:33:06.171Z,21.90
2019-06-07T20:35:36.169Z,21.90
2019-06-07T20:38:05.656Z,21.80
2019-06-07T20:40:35.465Z,21.80
2019-06-07T20:43:05.790Z,21.80
2019-06-07T20:45:35.485Z,21.70
2019-06-07T20:48:06.160Z,21.60
2019-06-07T20:50:35.732Z,21.50
2019-06-07T20:53:05.253Z,21.50
2019-06-07T20:55:34.781Z,21.50
2019-06-07T20:58:07.255Z,21.40
2019-06-07T21:00:37.015Z,21.40
2019-06-07T21:03:07.426Z,21.30
2019-06-07T21:05:37.093Z,21.30
2019-06-07T21:08:09.731Z,21.20
2019-06-07T21:10:37.576Z,21.20
2019-06-07T21:13:08.127Z,21.10
2019-06-07T21:15:48.516Z,21.10
2019-06-07T21:18:16.354Z,21.10
2019-06-07T21:20:39.821Z,21.10
2019-06-07T21:23:11.880Z,21.00
2019-06-07T21:25:40.777Z,21.00
2019-06-07T21:28:12.949Z,21.00
2019-06-07T21:30:42.429Z,20.90
2019-06-07T21:33:12.038Z,20.90
2019-06-07T21:35:41.906Z,20.90
2019-06-07T21:38:12.680Z,20.80
2019-06-07T21:40:42.323Z,20.80
2019-06-07T21:43:12.767Z,20.80
2019-06-07T21:45:42.498Z,20.80
2019-06-07T21:48:14.220Z,20.70
2019-06-07T21:50:42.985Z,20.70
2019-06-07T21:53:12.973Z,20.60
2019-06-07T21:55:42.622Z,20.70
2019-06-07T21:58:13.454Z,20.60
2019-06-07T22:01:24.993Z,20.50
2019-06-07T22:03:54.392Z,20.50
2019-06-07T22:06:23.770Z,20.40
2019-06-07T22:08:53.197Z,20.30
2019-06-07T22:11:22.779Z,20.30
2019-06-07T22:13:52.271Z,20.20
2019-06-07T22:16:29.005Z,20.10
2019-06-07T22:18:52.707Z,20.10
2019-06-07T22:21:22.110Z,20.00
2019-06-07T22:23:51.450Z,19.90
2019-06-07T22:26:20.810Z,19.80
2019-06-07T22:28:50.318Z,19.70
2019-06-07T22:31:19.793Z,19.60
2019-06-07T22:33:49.105Z,19.50
2019-06-07T22:36:19.495Z,19.40
2019-06-07T22:38:48.933Z,19.40
2019-06-07T22:41:18.285Z,19.30
2019-06-07T22:43:47.592Z,19.20
2019-06-07T22:46:17.001Z,19.10
2019-06-07T22:48:46.323Z,19.00
2019-06-07T22:51:16.482Z,19.00
2019-06-07T22:53:46.056Z,18.90
2019-06-07T22:56:21.106Z,18.80
2019-06-07T22:58:50.481Z,18.70
2019-06-07T23:01:20.287Z,18.70
2019-06-07T23:03:49.770Z,18.60
2019-06-07T23:06:19.132Z,18.50
2019-06-07T23:08:48.528Z,18.50
2019-06-07T23:11:19.397Z,18.40
2019-06-07T23:13:49.074Z,18.40
2019-06-07T23:16:19.808Z,18.40
2019-06-07T23:18:49.534Z,18.30
2019-06-07T23:21:20.083Z,18.20
2019-06-07T23:23:49.646Z,18.20
2019-06-07T23:26:18.979Z,18.20
2019-06-07T23:28:48.398Z,18.10
2019-06-07T23:31:18.563Z,18.00
2019-06-07T23:33:47.941Z,18.00
2019-06-07T23:36:17.319Z,17.90
2019-06-07T23:38:46.720Z,17.90
2019-06-07T23:41:17.362Z,17.80
2019-06-07T23:43:47.242Z,17.80
2019-06-07T23:46:17.451Z,17.70
2019-06-07T23:48:47.128Z,17.70
2019-06-07T23:51:17.621Z,17.60
2019-06-07T23:53:47.328Z,17.60
2019-06-07T23:56:18.307Z,17.60
2019-06-07T23:58:47.715Z,17.50
